sensor_id;sensor_type;location;lat;lon;timestamp;temperature;humidity
64939;DHT22;51453;47.738;7.420;2023-02-02T00:01:52;4.70;99.90
64939;DHT22;51453;47.738;7.420;2023-02-02T00:04:34;4.60;99.90
64939;DHT22;51453;47.738;7.420;2023-02-02T00:07:01;4.60;99.90
64939;DHT22;51453;47.738;7.420;2023-02-02T00:09:30;4.40;99.90
64939;DHT22;51453;47.738;7.420;2023-02-02T00:11:57;4.40;99.90
64939;DHT22;51453;47.738;7.420;2023-02-02T00:14:23;4.40;99.90
64939;DHT22;51453;47.738;7.420;2023-02-02T00:16:51;4.50;99.90
64939;DHT22;51453;47.738;7.420;2023-02-02T00:21:44;4.70;99.90
64939;DHT22;51453;47.738;7.420;2023-02-02T00:24:12;4.70;99.90
64939;DHT22;51453;47.738;7.420;2023-02-02T00:26:40;4.80;99.90
64939;DHT22;51453;47.738;7.420;2023-02-02T00:29:07;4.80;99.90
64939;DHT22;51453;47.738;7.420;2023-02-02T00:31:35;4.80;99.90
64939;DHT22;51453;47.738;7.420;2023-02-02T00:34:01;4.70;99.90
64939;DHT22;51453;47.738;7.420;2023-02-02T00:36:26;4.60;99.90
64939;DHT22;51453;47.738;7.420;2023-02-02T00:38:52;4.60;99.90
64939;DHT22;51453;47.738;7.420;2023-02-02T00:41:18;4.50;99.90
64939;DHT22;51453;47.738;7.420;2023-02-02T00:43:44;4.50;99.90
64939;DHT22;51453;47.738;7.420;2023-02-02T00:46:17;4.40;99.90
64939;DHT22;51453;47.738;7.420;2023-02-02T00:48:43;4.40;99.90
64939;DHT22;51453;47.738;7.420;2023-02-02T00:51:08;4.40;99.90
64939;DHT22;51453;47.738;7.420;2023-02-02T00:53:34;4.50;99.90
64939;DHT22;51453;47.738;7.420;2023-02-02T00:55:59;4.40;99.90
64939;DHT22;51453;47.738;7.420;2023-02-02T00:58:25;4.50;99.90
64939;DHT22;51453;47.738;7.420;2023-02-02T01:00:51;4.50;99.90
64939;DHT22;51453;47.738;7.420;2023-02-02T01:03:16;4.60;99.90
64939;DHT22;51453;47.738;7.420;2023-02-02T01:05:42;4.60;99.90
64939;DHT22;51453;47.738;7.420;2023-02-02T01:08:08;4.60;99.90
64939;DHT22;51453;47.738;7.420;2023-02-02T01:10:34;4.60;99.90
64939;DHT22;51453;47.738;7.420;2023-02-02T01:13:00;4.60;99.90
64939;DHT22;51453;47.738;7.420;2023-02-02T01:15:26;4.60;99.90
64939;DHT22;51453;47.738;7.420;2023-02-02T01:17:52;4.70;99.90
64939;DHT22;51453;47.738;7.420;2023-02-02T01:20:19;4.70;99.90
64939;DHT22;51453;47.738;7.420;2023-02-02T01:22:45;4.80;99.90
64939;DHT22;51453;47.738;7.420;2023-02-02T01:25:12;4.70;99.90
64939;DHT22;51453;47.738;7.420;2023-02-02T01:27:37;4.70;99.90
64939;DHT22;51453;47.738;7.420;2023-02-02T01:30:03;4.70;99.90
64939;DHT22;51453;47.738;7.420;2023-02-02T01:32:29;4.80;99.90
64939;DHT22;51453;47.738;7.420;2023-02-02T01:34:55;4.70;99.90
64939;DHT22;51453;47.738;7.420;2023-02-02T01:37:21;4.70;99.90
64939;DHT22;51453;47.738;7.420;2023-02-02T01:39:47;4.70;99.90
64939;DHT22;51453;47.738;7.420;2023-02-02T01:42:17;4.60;99.90
64939;DHT22;51453;47.738;7.420;2023-02-02T01:45:16;4.40;99.90
64939;DHT22;51453;47.738;7.420;2023-02-02T01:47:46;4.30;99.90
64939;DHT22;51453;47.738;7.420;2023-02-02T01:50:14;4.20;99.90
64939;DHT22;51453;47.738;7.420;2023-02-02T01:52:44;4.10;99.90
64939;DHT22;51453;47.738;7.420;2023-02-02T01:55:12;4.00;99.90
64939;DHT22;51453;47.738;7.420;2023-02-02T01:58:13;3.90;99.90
64939;DHT22;51453;47.738;7.420;2023-02-02T02:00:41;3.90;99.90
64939;DHT22;51453;47.738;7.420;2023-02-02T02:03:11;3.80;99.90
64939;DHT22;51453;47.738;7.420;2023-02-02T02:06:10;3.80;99.90
64939;DHT22;51453;47.738;7.420;2023-02-02T02:09:01;3.80;99.90
64939;DHT22;51453;47.738;7.420;2023-02-02T02:11:31;3.70;99.90
64939;DHT22;51453;47.738;7.420;2023-02-02T02:13:59;3.80;99.90
64939;DHT22;51453;47.738;7.420;2023-02-02T02:37:29;4.50;99.90
64939;DHT22;51453;47.738;7.420;2023-02-02T02:40:07;4.50;99.90
64939;DHT22;51453;47.738;7.420;2023-02-02T02:42:42;4.50;99.90
64939;DHT22;51453;47.738;7.420;2023-02-02T02:45:10;4.50;99.90
64939;DHT22;51453;47.738;7.420;2023-02-02T02:47:37;4.60;99.90
64939;DHT22;51453;47.738;7.420;2023-02-02T02:50:04;4.50;99.90
64939;DHT22;51453;47.738;7.420;2023-02-02T02:52:31;4.50;99.90
64939;DHT22;51453;47.738;7.420;2023-02-02T02:54:58;4.50;99.90
64939;DHT22;51453;47.738;7.420;2023-02-02T03:00:44;4.40;99.90
64939;DHT22;51453;47.738;7.420;2023-02-02T03:03:22;4.30;99.90
64939;DHT22;51453;47.738;7.420;2023-02-02T03:05:51;4.10;99.90
64939;DHT22;51453;47.738;7.420;2023-02-02T03:08:49;4.10;99.90
64939;DHT22;51453;47.738;7.420;2023-02-02T03:11:18;4.00;99.90
64939;DHT22;51453;47.738;7.420;2023-02-02T03:13:44;4.00;99.90
64939;DHT22;51453;47.738;7.420;2023-02-02T03:16:10;4.00;99.90
64939;DHT22;51453;47.738;7.420;2023-02-02T03:18:36;4.00;99.90
64939;DHT22;51453;47.738;7.420;2023-02-02T03:21:02;4.00;99.90
64939;DHT22;51453;47.738;7.420;2023-02-02T03:23:27;4.10;99.90
64939;DHT22;51453;47.738;7.420;2023-02-02T03:25:54;4.20;99.90
64939;DHT22;51453;47.738;7.420;2023-02-02T03:28:20;4.30;99.90
64939;DHT22;51453;47.738;7.420;2023-02-02T03:30:47;4.30;99.90
64939;DHT22;51453;47.738;7.420;2023-02-02T03:33:13;4.30;99.90
64939;DHT22;51453;47.738;7.420;2023-02-02T03:35:40;4.30;99.90
64939;DHT22;51453;47.738;7.420;2023-02-02T03:38:06;4.30;99.90
64939;DHT22;51453;47.738;7.420;2023-02-02T03:40:31;4.30;99.90
64939;DHT22;51453;47.738;7.420;2023-02-02T03:42:57;4.30;99.90
64939;DHT22;51453;47.738;7.420;2023-02-02T03:45:26;4.30;99.90
64939;DHT22;51453;47.738;7.420;2023-02-02T03:47:52;4.30;99.90
64939;DHT22;51453;47.738;7.420;2023-02-02T03:50:17;4.40;99.90
64939;DHT22;51453;47.738;7.420;2023-02-02T03:52:43;4.40;99.90
64939;DHT22;51453;47.738;7.420;2023-02-02T03:55:09;4.40;99.90
64939;DHT22;51453;47.738;7.420;2023-02-02T03:57:34;4.40;99.90
64939;DHT22;51453;47.738;7.420;2023-02-02T04:00:00;4.40;99.90
64939;DHT22;51453;47.738;7.420;2023-02-02T04:02:26;4.40;99.90
64939;DHT22;51453;47.738;7.420;2023-02-02T04:04:51;4.30;99.90
64939;DHT22;51453;47.738;7.420;2023-02-02T04:07:17;4.40;99.90
64939;DHT22;51453;47.738;7.420;2023-02-02T04:09:42;4.30;99.90
64939;DHT22;51453;47.738;7.420;2023-02-02T04:12:08;4.30;99.90
64939;DHT22;51453;47.738;7.420;2023-02-02T04:14:34;4.40;99.90
64939;DHT22;51453;47.738;7.420;2023-02-02T04:16:59;4.40;99.90
64939;DHT22;51453;47.738;7.420;2023-02-02T04:19:25;4.40;99.90
64939;DHT22;51453;47.738;7.420;2023-02-02T04:21:52;4.30;99.90
64939;DHT22;51453;47.738;7.420;2023-02-02T04:24:17;4.40;99.90
64939;DHT22;51453;47.738;7.420;2023-02-02T04:26:43;4.40;99.90
64939;DHT22;51453;47.738;7.420;2023-02-02T04:29:09;4.40;99.90
64939;DHT22;51453;47.738;7.420;2023-02-02T04:31:35;4.50;99.90
64939;DHT22;51453;47.738;7.420;2023-02-02T04:34:01;4.60;99.90
64939;DHT22;51453;47.738;7.420;2023-02-02T04:36:26;4.60;99.90
64939;DHT22;51453;47.738;7.420;2023-02-02T04:38:53;4.60;99.90
64939;DHT22;51453;47.738;7.420;2023-02-02T04:41:20;4.60;99.90
64939;DHT22;51453;47.738;7.420;2023-02-02T04:43:46;4.60;99.90
64939;DHT22;51453;47.738;7.420;2023-02-02T04:46:12;4.60;99.90
64939;DHT22;51453;47.738;7.420;2023-02-02T04:48:38;4.60;99.90
64939;DHT22;51453;47.738;7.420;2023-02-02T04:51:10;4.60;99.90
64939;DHT22;51453;47.738;7.420;2023-02-02T04:53:37;4.60;99.90
64939;DHT22;51453;47.738;7.420;2023-02-02T04:56:11;4.50;99.90
64939;DHT22;51453;47.738;7.420;2023-02-02T04:58:38;4.50;99.90
64939;DHT22;51453;47.738;7.420;2023-02-02T05:01:12;4.60;99.90
64939;DHT22;51453;47.738;7.420;2023-02-02T05:03:38;4.60;99.90
64939;DHT22;51453;47.738;7.420;2023-02-02T05:06:04;4.60;99.90
64939;DHT22;51453;47.738;7.420;2023-02-02T05:08:30;4.60;99.90
64939;DHT22;51453;47.738;7.420;2023-02-02T05:10:56;4.60;99.90
64939;DHT22;51453;47.738;7.420;2023-02-02T05:13:22;4.60;99.90
64939;DHT22;51453;47.738;7.420;2023-02-02T05:15:47;4.60;99.90
64939;DHT22;51453;47.738;7.420;2023-02-02T05:18:13;4.70;99.90
64939;DHT22;51453;47.738;7.420;2023-02-02T05:20:39;4.70;99.90
64939;DHT22;51453;47.738;7.420;2023-02-02T05:23:04;4.70;99.90
64939;DHT22;51453;47.738;7.420;2023-02-02T05:25:30;4.70;99.90
64939;DHT22;51453;47.738;7.420;2023-02-02T05:34:40;4.50;99.90
64939;DHT22;51453;47.738;7.420;2023-02-02T05:37:06;4.60;99.90
64939;DHT22;51453;47.738;7.420;2023-02-02T05:39:31;4.60;99.90
64939;DHT22;51453;47.738;7.420;2023-02-02T05:41:57;4.60;99.90
64939;DHT22;51453;47.738;7.420;2023-02-02T05:44:23;4.70;99.90
64939;DHT22;51453;47.738;7.420;2023-02-02T05:53:36;4.90;99.90
64939;DHT22;51453;47.738;7.420;2023-02-02T05:56:02;4.80;99.90
64939;DHT22;51453;47.738;7.420;2023-02-02T05:58:28;4.90;99.90
64939;DHT22;51453;47.738;7.420;2023-02-02T06:00:54;4.90;99.90
64939;DHT22;51453;47.738;7.420;2023-02-02T06:03:19;4.90;99.90
64939;DHT22;51453;47.738;7.420;2023-02-02T06:05:45;4.90;99.90
64939;DHT22;51453;47.738;7.420;2023-02-02T06:08:11;4.90;99.90
64939;DHT22;51453;47.738;7.420;2023-02-02T06:10:40;4.90;99.90
64939;DHT22;51453;47.738;7.420;2023-02-02T06:13:07;4.90;99.90
64939;DHT22;51453;47.738;7.420;2023-02-02T06:15:33;4.90;99.90
64939;DHT22;51453;47.738;7.420;2023-02-02T06:17:59;4.90;99.90
64939;DHT22;51453;47.738;7.420;2023-02-02T06:20:25;4.90;99.90
64939;DHT22;51453;47.738;7.420;2023-02-02T06:22:51;5.00;99.90
64939;DHT22;51453;47.738;7.420;2023-02-02T06:25:17;5.00;99.90
64939;DHT22;51453;47.738;7.420;2023-02-02T06:27:43;5.00;99.90
64939;DHT22;51453;47.738;7.420;2023-02-02T06:30:14;5.00;99.90
64939;DHT22;51453;47.738;7.420;2023-02-02T06:32:39;5.00;99.90
64939;DHT22;51453;47.738;7.420;2023-02-02T06:35:06;5.00;99.90
64939;DHT22;51453;47.738;7.420;2023-02-02T06:37:32;5.00;99.90
64939;DHT22;51453;47.738;7.420;2023-02-02T06:39:59;5.00;99.90
64939;DHT22;51453;47.738;7.420;2023-02-02T06:42:24;5.00;99.90
64939;DHT22;51453;47.738;7.420;2023-02-02T06:44:50;5.00;99.90
64939;DHT22;51453;47.738;7.420;2023-02-02T06:47:16;5.00;99.90
64939;DHT22;51453;47.738;7.420;2023-02-02T06:49:41;5.00;99.90
64939;DHT22;51453;47.738;7.420;2023-02-02T06:52:07;5.00;99.90
64939;DHT22;51453;47.738;7.420;2023-02-02T06:54:33;5.00;99.90
64939;DHT22;51453;47.738;7.420;2023-02-02T06:56:58;4.90;99.90
64939;DHT22;51453;47.738;7.420;2023-02-02T06:59:24;4.90;99.90
64939;DHT22;51453;47.738;7.420;2023-02-02T07:01:50;4.90;99.90
64939;DHT22;51453;47.738;7.420;2023-02-02T07:04:16;4.90;99.90
64939;DHT22;51453;47.738;7.420;2023-02-02T07:06:42;4.90;99.90
64939;DHT22;51453;47.738;7.420;2023-02-02T07:09:08;4.90;99.90
64939;DHT22;51453;47.738;7.420;2023-02-02T07:11:34;4.90;99.90
64939;DHT22;51453;47.738;7.420;2023-02-02T07:14:03;4.90;99.90
64939;DHT22;51453;47.738;7.420;2023-02-02T07:16:29;5.00;99.90
64939;DHT22;51453;47.738;7.420;2023-02-02T07:18:55;5.00;99.90
64939;DHT22;51453;47.738;7.420;2023-02-02T07:21:23;5.10;99.90
64939;DHT22;51453;47.738;7.420;2023-02-02T07:23:50;5.10;99.90
64939;DHT22;51453;47.738;7.420;2023-02-02T07:26:17;5.20;99.90
64939;DHT22;51453;47.738;7.420;2023-02-02T07:28:44;5.20;99.90
64939;DHT22;51453;47.738;7.420;2023-02-02T07:31:20;5.30;99.90
64939;DHT22;51453;47.738;7.420;2023-02-02T07:33:46;5.40;99.90
64939;DHT22;51453;47.738;7.420;2023-02-02T07:36:15;5.50;99.90
64939;DHT22;51453;47.738;7.420;2023-02-02T07:38:41;5.50;99.90
64939;DHT22;51453;47.738;7.420;2023-02-02T07:41:07;5.60;99.90
64939;DHT22;51453;47.738;7.420;2023-02-02T07:43:33;5.60;99.90
64939;DHT22;51453;47.738;7.420;2023-02-02T07:46:03;5.60;99.90
64939;DHT22;51453;47.738;7.420;2023-02-02T07:48:31;5.70;99.90
64939;DHT22;51453;47.738;7.420;2023-02-02T07:51:01;5.70;99.90
64939;DHT22;51453;47.738;7.420;2023-02-02T07:53:27;5.70;99.90
64939;DHT22;51453;47.738;7.420;2023-02-02T07:56:03;5.80;99.90
64939;DHT22;51453;47.738;7.420;2023-02-02T07:58:28;5.90;99.90
64939;DHT22;51453;47.738;7.420;2023-02-02T08:00:54;5.90;99.90
64939;DHT22;51453;47.738;7.420;2023-02-02T08:03:24;6.00;99.90
64939;DHT22;51453;47.738;7.420;2023-02-02T08:05:49;6.00;99.90
64939;DHT22;51453;47.738;7.420;2023-02-02T08:08:15;6.00;99.90
64939;DHT22;51453;47.738;7.420;2023-02-02T08:10:50;6.00;99.90
64939;DHT22;51453;47.738;7.420;2023-02-02T08:13:15;6.10;99.90
64939;DHT22;51453;47.738;7.420;2023-02-02T08:15:41;6.10;99.90
64939;DHT22;51453;47.738;7.420;2023-02-02T08:18:07;6.20;99.90
64939;DHT22;51453;47.738;7.420;2023-02-02T08:20:32;6.30;99.90
64939;DHT22;51453;47.738;7.420;2023-02-02T08:22:58;6.30;99.90
64939;DHT22;51453;47.738;7.420;2023-02-02T08:25:24;6.30;99.90
64939;DHT22;51453;47.738;7.420;2023-02-02T08:27:54;6.30;99.90
64939;DHT22;51453;47.738;7.420;2023-02-02T08:30:20;6.30;99.90
64939;DHT22;51453;47.738;7.420;2023-02-02T08:32:45;6.20;99.90
64939;DHT22;51453;47.738;7.420;2023-02-02T08:35:11;6.20;99.90
64939;DHT22;51453;47.738;7.420;2023-02-02T08:37:37;6.30;99.90
64939;DHT22;51453;47.738;7.420;2023-02-02T08:40:03;6.20;99.90
64939;DHT22;51453;47.738;7.420;2023-02-02T08:42:29;6.30;99.90
64939;DHT22;51453;47.738;7.420;2023-02-02T08:44:54;6.30;99.90
64939;DHT22;51453;47.738;7.420;2023-02-02T08:47:20;6.40;99.90
64939;DHT22;51453;47.738;7.420;2023-02-02T08:49:46;6.40;99.90
64939;DHT22;51453;47.738;7.420;2023-02-02T08:52:11;6.30;99.90
64939;DHT22;51453;47.738;7.420;2023-02-02T08:54:37;6.30;99.90
64939;DHT22;51453;47.738;7.420;2023-02-02T08:57:03;6.20;99.90
64939;DHT22;51453;47.738;7.420;2023-02-02T08:59:28;6.30;99.90
64939;DHT22;51453;47.738;7.420;2023-02-02T09:01:54;6.50;99.90
64939;DHT22;51453;47.738;7.420;2023-02-02T09:04:20;6.60;99.90
64939;DHT22;51453;47.738;7.420;2023-02-02T09:06:46;6.50;99.90
64939;DHT22;51453;47.738;7.420;2023-02-02T09:09:14;6.60;99.90
64939;DHT22;51453;47.738;7.420;2023-02-02T09:11:40;6.70;99.90
64939;DHT22;51453;47.738;7.420;2023-02-02T09:14:07;6.80;99.90
64939;DHT22;51453;47.738;7.420;2023-02-02T09:16:34;6.70;99.90
64939;DHT22;51453;47.738;7.420;2023-02-02T09:19:00;6.70;99.90
64939;DHT22;51453;47.738;7.420;2023-02-02T09:21:26;6.80;99.90
64939;DHT22;51453;47.738;7.420;2023-02-02T09:23:52;6.90;99.90
64939;DHT22;51453;47.738;7.420;2023-02-02T09:26:20;6.90;99.90
64939;DHT22;51453;47.738;7.420;2023-02-02T09:28:49;6.80;99.90
64939;DHT22;51453;47.738;7.420;2023-02-02T09:31:16;6.80;99.90
64939;DHT22;51453;47.738;7.420;2023-02-02T09:33:42;6.80;99.90
64939;DHT22;51453;47.738;7.420;2023-02-02T09:38:34;6.80;99.90
64939;DHT22;51453;47.738;7.420;2023-02-02T09:41:00;6.60;99.90
64939;DHT22;51453;47.738;7.420;2023-02-02T09:46:13;6.60;99.90
64939;DHT22;51453;47.738;7.420;2023-02-02T09:49:01;6.70;99.90
64939;DHT22;51453;47.738;7.420;2023-02-02T09:51:36;6.70;99.90
64939;DHT22;51453;47.738;7.420;2023-02-02T09:54:35;6.60;99.90
64939;DHT22;51453;47.738;7.420;2023-02-02T09:57:28;6.60;99.90
64939;DHT22;51453;47.738;7.420;2023-02-02T09:59:55;6.70;99.90
64939;DHT22;51453;47.738;7.420;2023-02-02T10:02:32;6.60;99.90
64939;DHT22;51453;47.738;7.420;2023-02-02T10:05:12;6.70;99.90
64939;DHT22;51453;47.738;7.420;2023-02-02T10:07:43;6.80;99.90
64939;DHT22;51453;47.738;7.420;2023-02-02T10:10:15;6.90;99.90
64939;DHT22;51453;47.738;7.420;2023-02-02T10:13:06;7.10;99.90
64939;DHT22;51453;47.738;7.420;2023-02-02T10:18:47;7.40;99.90
64939;DHT22;51453;47.738;7.420;2023-02-02T10:24:21;7.60;99.90
64939;DHT22;51453;47.738;7.420;2023-02-02T10:26:55;7.50;99.90
64939;DHT22;51453;47.738;7.420;2023-02-02T10:46:03;7.70;99.90
64939;DHT22;51453;47.738;7.420;2023-02-02T10:48:33;7.70;99.90
64939;DHT22;51453;47.738;7.420;2023-02-02T10:51:22;7.60;99.90
64939;DHT22;51453;47.738;7.420;2023-02-02T10:53:53;7.60;99.90
64939;DHT22;51453;47.738;7.420;2023-02-02T10:56:46;7.40;99.90
64939;DHT22;51453;47.738;7.420;2023-02-02T10:59:26;7.50;99.90
64939;DHT22;51453;47.738;7.420;2023-02-02T11:01:54;7.50;99.90
64939;DHT22;51453;47.738;7.420;2023-02-02T11:04:21;7.50;99.90
64939;DHT22;51453;47.738;7.420;2023-02-02T11:07:05;7.40;99.90
64939;DHT22;51453;47.738;7.420;2023-02-02T11:09:35;7.30;99.90
64939;DHT22;51453;47.738;7.420;2023-02-02T11:14:45;7.70;99.90
64939;DHT22;51453;47.738;7.420;2023-02-02T11:17:29;7.80;99.90
64939;DHT22;51453;47.738;7.420;2023-02-02T11:19:55;7.80;99.90
64939;DHT22;51453;47.738;7.420;2023-02-02T11:24:56;8.00;99.90
64939;DHT22;51453;47.738;7.420;2023-02-02T11:27:27;8.10;99.90
64939;DHT22;51453;47.738;7.420;2023-02-02T11:30:09;8.30;99.90
64939;DHT22;51453;47.738;7.420;2023-02-02T11:32:36;8.00;99.90
64939;DHT22;51453;47.738;7.420;2023-02-02T11:37:36;8.10;99.90
64939;DHT22;51453;47.738;7.420;2023-02-02T11:42:54;8.30;99.90
64939;DHT22;51453;47.738;7.420;2023-02-02T11:45:36;8.30;99.90
64939;DHT22;51453;47.738;7.420;2023-02-02T11:48:17;8.20;99.90
64939;DHT22;51453;47.738;7.420;2023-02-02T11:50:47;8.00;99.90
64939;DHT22;51453;47.738;7.420;2023-02-02T11:53:22;7.90;99.90
64939;DHT22;51453;47.738;7.420;2023-02-02T11:55:49;7.90;99.90
64939;DHT22;51453;47.738;7.420;2023-02-02T11:58:18;8.20;99.90
64939;DHT22;51453;47.738;7.420;2023-02-02T12:00:53;8.30;99.90
64939;DHT22;51453;47.738;7.420;2023-02-02T12:05:52;8.40;99.90
64939;DHT22;51453;47.738;7.420;2023-02-02T12:08:18;8.40;99.90
64939;DHT22;51453;47.738;7.420;2023-02-02T12:10:58;8.50;99.90
64939;DHT22;51453;47.738;7.420;2023-02-02T12:13:37;8.60;99.90
64939;DHT22;51453;47.738;7.420;2023-02-02T12:16:26;8.50;99.90
64939;DHT22;51453;47.738;7.420;2023-02-02T12:22:25;8.40;99.90
64939;DHT22;51453;47.738;7.420;2023-02-02T12:24:29;8.60;99.90
64939;DHT22;51453;47.738;7.420;2023-02-02T12:44:13;9.40;99.90
64939;DHT22;51453;47.738;7.420;2023-02-02T12:52:11;8.70;99.90
64939;DHT22;51453;47.738;7.420;2023-02-02T13:08:39;8.30;99.90
64939;DHT22;51453;47.738;7.420;2023-02-02T13:11:12;8.40;99.90
64939;DHT22;51453;47.738;7.420;2023-02-02T13:13:59;8.40;99.90
64939;DHT22;51453;47.738;7.420;2023-02-02T13:16:28;8.40;99.90
64939;DHT22;51453;47.738;7.420;2023-02-02T13:19:00;8.40;99.90
64939;DHT22;51453;47.738;7.420;2023-02-02T13:21:29;8.30;99.90
64939;DHT22;51453;47.738;7.420;2023-02-02T13:23:59;8.40;99.90
64939;DHT22;51453;47.738;7.420;2023-02-02T13:26:33;8.30;99.90
64939;DHT22;51453;47.738;7.420;2023-02-02T13:31:47;8.00;99.90
64939;DHT22;51453;47.738;7.420;2023-02-02T13:37:30;8.00;99.90
64939;DHT22;51453;47.738;7.420;2023-02-02T13:45:02;8.40;99.90
64939;DHT22;51453;47.738;7.420;2023-02-02T13:47:47;8.40;99.90
64939;DHT22;51453;47.738;7.420;2023-02-02T13:50:16;8.60;99.90
64939;DHT22;51453;47.738;7.420;2023-02-02T13:53:07;8.60;99.90
64939;DHT22;51453;47.738;7.420;2023-02-02T13:58:43;8.70;99.90
64939;DHT22;51453;47.738;7.420;2023-02-02T14:01:13;8.60;99.90
64939;DHT22;51453;47.738;7.420;2023-02-02T14:03:50;8.70;99.90
64939;DHT22;51453;47.738;7.420;2023-02-02T14:06:19;8.80;99.90
64939;DHT22;51453;47.738;7.420;2023-02-02T14:08:57;8.80;99.90
64939;DHT22;51453;47.738;7.420;2023-02-02T14:11:24;8.80;99.90
64939;DHT22;51453;47.738;7.420;2023-02-02T14:13:55;8.70;99.90
64939;DHT22;51453;47.738;7.420;2023-02-02T14:16:46;8.70;99.90
64939;DHT22;51453;47.738;7.420;2023-02-02T14:19:18;8.80;99.90
64939;DHT22;51453;47.738;7.420;2023-02-02T14:32:01;8.60;99.90
64939;DHT22;51453;47.738;7.420;2023-02-02T14:34:34;8.60;99.90
64939;DHT22;51453;47.738;7.420;2023-02-02T14:39:36;8.60;99.90
64939;DHT22;51453;47.738;7.420;2023-02-02T14:45:26;8.70;99.90
64939;DHT22;51453;47.738;7.420;2023-02-02T14:53:14;8.60;99.90
64939;DHT22;51453;47.738;7.420;2023-02-02T14:56:04;8.60;99.90
64939;DHT22;51453;47.738;7.420;2023-02-02T14:58:41;8.50;99.90
64939;DHT22;51453;47.738;7.420;2023-02-02T15:01:30;8.40;99.90
64939;DHT22;51453;47.738;7.420;2023-02-02T15:06:49;8.40;99.90
64939;DHT22;51453;47.738;7.420;2023-02-02T15:20:32;8.00;99.90
64939;DHT22;51453;47.738;7.420;2023-02-02T15:28:42;7.90;99.90
64939;DHT22;51453;47.738;7.420;2023-02-02T15:33:40;7.90;99.90
64939;DHT22;51453;47.738;7.420;2023-02-02T15:38:51;7.80;99.90
64939;DHT22;51453;47.738;7.420;2023-02-02T15:43:46;7.90;99.90
64939;DHT22;51453;47.738;7.420;2023-02-02T15:46:28;7.90;99.90
64939;DHT22;51453;47.738;7.420;2023-02-02T15:51:49;7.90;99.90
64939;DHT22;51453;47.738;7.420;2023-02-02T15:54:51;7.90;99.90
64939;DHT22;51453;47.738;7.420;2023-02-02T15:57:35;7.90;99.90
64939;DHT22;51453;47.738;7.420;2023-02-02T16:00:25;7.90;99.90
64939;DHT22;51453;47.738;7.420;2023-02-02T16:03:04;7.80;99.90
64939;DHT22;51453;47.738;7.420;2023-02-02T16:08:00;7.80;99.90
64939;DHT22;51453;47.738;7.420;2023-02-02T16:10:26;7.70;99.90
64939;DHT22;51453;47.738;7.420;2023-02-02T16:12:51;7.70;99.90
64939;DHT22;51453;47.738;7.420;2023-02-02T16:15:23;7.70;99.90
64939;DHT22;51453;47.738;7.420;2023-02-02T16:18:00;7.70;99.90
64939;DHT22;51453;47.738;7.420;2023-02-02T16:20:28;7.70;99.90
64939;DHT22;51453;47.738;7.420;2023-02-02T16:22:56;7.60;99.90
64939;DHT22;51453;47.738;7.420;2023-02-02T16:25:29;7.60;99.90
64939;DHT22;51453;47.738;7.420;2023-02-02T16:27:56;7.60;99.90
64939;DHT22;51453;47.738;7.420;2023-02-02T16:30:27;7.60;99.90
64939;DHT22;51453;47.738;7.420;2023-02-02T16:32:53;7.60;99.90
64939;DHT22;51453;47.738;7.420;2023-02-02T16:35:38;7.50;99.90
64939;DHT22;51453;47.738;7.420;2023-02-02T16:43:50;7.50;99.90
64939;DHT22;51453;47.738;7.420;2023-02-02T16:46:46;7.50;99.90
64939;DHT22;51453;47.738;7.420;2023-02-02T16:49:21;7.40;99.90
64939;DHT22;51453;47.738;7.420;2023-02-02T16:51:56;7.40;99.90
64939;DHT22;51453;47.738;7.420;2023-02-02T16:54:31;7.40;99.90
64939;DHT22;51453;47.738;7.420;2023-02-02T16:57:00;7.40;99.90
64939;DHT22;51453;47.738;7.420;2023-02-02T16:59:34;7.40;99.90
64939;DHT22;51453;47.738;7.420;2023-02-02T17:02:39;7.40;99.90
64939;DHT22;51453;47.738;7.420;2023-02-02T17:05:34;7.40;99.90
64939;DHT22;51453;47.738;7.420;2023-02-02T17:08:04;7.40;99.90
64939;DHT22;51453;47.738;7.420;2023-02-02T17:10:36;7.30;99.90
64939;DHT22;51453;47.738;7.420;2023-02-02T17:13:35;7.20;99.90
64939;DHT22;51453;47.738;7.420;2023-02-02T17:15:52;7.10;99.90
64939;DHT22;51453;47.738;7.420;2023-02-02T17:18:17;7.00;99.90
64939;DHT22;51453;47.738;7.420;2023-02-02T17:20:43;7.00;99.90
64939;DHT22;51453;47.738;7.420;2023-02-02T17:23:16;7.00;99.90
64939;DHT22;51453;47.738;7.420;2023-02-02T17:25:42;7.00;99.90
64939;DHT22;51453;47.738;7.420;2023-02-02T17:28:15;6.90;99.90
64939;DHT22;51453;47.738;7.420;2023-02-02T17:30:44;6.90;99.90
64939;DHT22;51453;47.738;7.420;2023-02-02T17:33:15;6.90;99.90
64939;DHT22;51453;47.738;7.420;2023-02-02T17:35:43;6.90;99.90
64939;DHT22;51453;47.738;7.420;2023-02-02T17:38:09;6.90;99.90
64939;DHT22;51453;47.738;7.420;2023-02-02T17:40:35;6.90;99.90
64939;DHT22;51453;47.738;7.420;2023-02-02T17:43:01;6.90;99.90
64939;DHT22;51453;47.738;7.420;2023-02-02T17:47:53;6.90;99.90
64939;DHT22;51453;47.738;7.420;2023-02-02T17:50:18;6.90;99.90
64939;DHT22;51453;47.738;7.420;2023-02-02T17:52:47;6.90;99.90
64939;DHT22;51453;47.738;7.420;2023-02-02T17:55:26;6.90;99.90
64939;DHT22;51453;47.738;7.420;2023-02-02T17:57:54;6.80;99.90
64939;DHT22;51453;47.738;7.420;2023-02-02T18:00:22;6.80;99.90
64939;DHT22;51453;47.738;7.420;2023-02-02T18:02:50;6.90;99.90
64939;DHT22;51453;47.738;7.420;2023-02-02T18:05:16;6.90;99.90
64939;DHT22;51453;47.738;7.420;2023-02-02T18:07:43;7.00;99.90
64939;DHT22;51453;47.738;7.420;2023-02-02T18:10:10;7.00;99.90
64939;DHT22;51453;47.738;7.420;2023-02-02T18:12:36;7.10;99.90
64939;DHT22;51453;47.738;7.420;2023-02-02T18:15:05;7.10;99.90
64939;DHT22;51453;47.738;7.420;2023-02-02T18:17:33;7.20;99.90
64939;DHT22;51453;47.738;7.420;2023-02-02T18:19:58;7.20;99.90
64939;DHT22;51453;47.738;7.420;2023-02-02T18:22:24;7.20;99.90
64939;DHT22;51453;47.738;7.420;2023-02-02T18:24:50;7.20;99.90
64939;DHT22;51453;47.738;7.420;2023-02-02T18:27:16;7.20;99.90
64939;DHT22;51453;47.738;7.420;2023-02-02T18:29:45;7.20;99.90
64939;DHT22;51453;47.738;7.420;2023-02-02T18:32:11;7.10;99.90
64939;DHT22;51453;47.738;7.420;2023-02-02T18:34:37;7.10;99.90
64939;DHT22;51453;47.738;7.420;2023-02-02T18:37:02;7.20;99.90
64939;DHT22;51453;47.738;7.420;2023-02-02T18:39:29;7.10;99.90
64939;DHT22;51453;47.738;7.420;2023-02-02T18:42:05;7.10;99.90
64939;DHT22;51453;47.738;7.420;2023-02-02T18:44:31;7.10;99.90
64939;DHT22;51453;47.738;7.420;2023-02-02T18:47:00;7.10;99.90
64939;DHT22;51453;47.738;7.420;2023-02-02T18:49:26;7.00;99.90
64939;DHT22;51453;47.738;7.420;2023-02-02T18:51:53;7.00;99.90
64939;DHT22;51453;47.738;7.420;2023-02-02T18:54:20;7.00;99.90
64939;DHT22;51453;47.738;7.420;2023-02-02T18:56:46;7.00;99.90
64939;DHT22;51453;47.738;7.420;2023-02-02T18:59:13;6.90;99.90
64939;DHT22;51453;47.738;7.420;2023-02-02T19:01:38;7.00;99.90
64939;DHT22;51453;47.738;7.420;2023-02-02T19:04:04;6.90;99.90
64939;DHT22;51453;47.738;7.420;2023-02-02T19:06:30;6.80;99.90
64939;DHT22;51453;47.738;7.420;2023-02-02T19:09:14;6.70;99.90
64939;DHT22;51453;47.738;7.420;2023-02-02T19:11:44;6.60;99.90
64939;DHT22;51453;47.738;7.420;2023-02-02T19:14:13;6.50;99.90
64939;DHT22;51453;47.738;7.420;2023-02-02T19:16:39;6.30;99.90
64939;DHT22;51453;47.738;7.420;2023-02-02T19:19:24;6.20;99.90